LEVX/VGO METAR and TAF weather

Enter ICAO airport designator
Station Type Date Time Source
LEVX METAR 2022/01/26 07:00 UTC NOAA

LEVX 260700Z 24004KT 200V260 CAVOK 04/01 Q1028 NOSIG


Station Type Date Time Source
LEVX Decoded METAR 2022/01/26 07:00 UTC NOAA

Vigo / Peinador, Spain (LEVX) 42-13N 008-38W 255M
Jan 26, 2022 - 02:00 AM EST / 2022.01.26 0700 UTC
Wind: from the WSW (240 degrees) at 5 MPH (4 KT) (direction variable):0
Visibility: greater than 7 mile(s):0
Temperature: 39 F (4 C)
Dew Point: 33 F (1 C)
Relative Humidity: 80%
Pressure (altimeter): 30.36 in. Hg (1028 hPa)
ob: LEVX 260700Z 24004KT 200V260 CAVOK 04/01 Q1028 NOSIG
cycle: 7

Station Type Date Time Source
LEVX TAF 2022/01/26 06:27 UTC NOAA

TAF LEVX 260500Z 2606/2706 VRB05KT CAVOK TX14/2615Z TN04/2607Z

Example: see airport list